TAF Text Data
IDs:
Format:
Raw Decoded Include METAR

Data at: 0920 UTC 10 Dec 2022

KDVN 100852Z AUTO 10007KT 1 1/4SM BR OVC002 03/02 A3021 RMK AO2 SLP231 T00280022 55000


KMLI 100852Z 09004KT 3SM BR OVC004 04/03 A3019 RMK AO2 SLP227 T00390028 53001

KMLI 100720Z 1007/1106 VRB03KT 2SM -DZ BR OVC002
  FM101200 VRB04KT 3SM -DZ BR OVC003
  FM101600 19005KT P6SM OVC006